Pagrindinis puslapis
METAR-TAF:

METAR-TAF

Oro uostai :

Oslas, Norvegija

platuma: 60-12N, ilguma: 011-05E, Aukštis: 208 m

Dabartinis oras

Ataskaita buvo paskelbta 10 minutes, ne 23:50 UTC
Vėjas 2 kt nuo kintamojo kryptimis
Temperatūra 3°C
Drėgmė 56%
Slėgis 1025 hPa
Matomumas 10 km arba daugiau
nėra debesų žemiau 1500 m ir nėra kamuolinių lietaus debesų

METAR: ENGM 072350Z VRB02KT CAVOK 03/M05 Q1025

Laikas: 02:00 (00:00 UTC)

Prognozė

Prognozė galioja nuo 08 metu 00 UTC su 08 metu 24 UTC
Vėjas 5 kt iš Pietų
Matomumas 10 km arba daugiau
nėra debesų žemiau 1500 m ir nėra kamuolinių lietaus debesų
Tapsmas
nuo 08 metu 09 UTC su 08 metu 11 UTC
Vėjas 15 kt iš Pietų
Laikinai
nuo 08 metu 11 UTC su 08 metu 15 UTC
Vėjas 15 kt iš Pietų su gūsio iki 25 kt
Tapsmas
nuo 08 metu 17 UTC su 08 metu 19 UTC
Vėjas 10 kt iš Vakarų/Šiaurės Vakarų

TAF: ENGM 0800/0824 18005KT CAVOK BECMG 0809/0811 19015KT TEMPO 0811/0815 19015G25KT BECMG 0817/0819 30010KT

Orai ataskaitas ir orų prognozės (METAR, TAF).

turimą stotys yra geltonos ir raudonos taškus žemėlapyje.

Perkelti pele per norėdami pamatyti stoties vardą.

Tada spustelėkite, norėdami matyti oro stebėjimo ir prognozės.

Norėdami pakeisti žemėlapį: spustelėkite ant žalios mygtukų su juodo kryžiaus žemyn,; žalią mygtuką su brūkšneliu, jei norite nutolinti; arba žalių rodyklių gretimoms žemėlapius.


METAR-TAF: